sensor_id;sensor_type;location;lat;lon;timestamp;P1;durP1;ratioP1;P2;durP2;ratioP2
9409;SDS011;4744;52.576;13.568;2022-09-13T00:01:15;3.67;;;3.38;;
9409;SDS011;4744;52.576;13.568;2022-09-13T00:03:42;3.00;;;2.80;;
9409;SDS011;4744;52.576;13.568;2022-09-13T00:06:09;3.33;;;3.10;;
9409;SDS011;4744;52.576;13.568;2022-09-13T00:08:39;3.10;;;2.90;;
9409;SDS011;4744;52.576;13.568;2022-09-13T00:11:07;3.40;;;3.20;;
9409;SDS011;4744;52.576;13.568;2022-09-13T00:13:39;3.45;;;3.17;;
9409;SDS011;4744;52.576;13.568;2022-09-13T00:16:14;3.00;;;2.80;;
9409;SDS011;4744;52.576;13.568;2022-09-13T00:18:42;3.33;;;3.05;;
9409;SDS011;4744;52.576;13.568;2022-09-13T00:21:09;3.00;;;2.80;;
9409;SDS011;4744;52.576;13.568;2022-09-13T00:23:38;3.22;;;3.03;;
9409;SDS011;4744;52.576;13.568;2022-09-13T00:26:09;3.00;;;2.80;;
9409;SDS011;4744;52.576;13.568;2022-09-13T00:28:37;3.40;;;3.10;;
9409;SDS011;4744;52.576;13.568;2022-09-13T00:31:06;3.28;;;2.75;;
9409;SDS011;4744;52.576;13.568;2022-09-13T00:33:34;3.58;;;2.60;;
9409;SDS011;4744;52.576;13.568;2022-09-13T00:36:04;2.97;;;2.78;;
9409;SDS011;4744;52.576;13.568;2022-09-13T00:38:33;2.80;;;2.60;;
9409;SDS011;4744;52.576;13.568;2022-09-13T00:41:03;3.10;;;2.88;;
9409;SDS011;4744;52.576;13.568;2022-09-13T00:43:40;3.20;;;3.00;;
9409;SDS011;4744;52.576;13.568;2022-09-13T00:46:15;2.83;;;2.63;;
9409;SDS011;4744;52.576;13.568;2022-09-13T00:48:46;3.13;;;2.92;;
9409;SDS011;4744;52.576;13.568;2022-09-13T00:51:16;2.88;;;2.78;;
9409;SDS011;4744;52.576;13.568;2022-09-13T00:53:43;3.35;;;3.15;;
9409;SDS011;4744;52.576;13.568;2022-09-13T00:56:16;2.88;;;2.67;;
9409;SDS011;4744;52.576;13.568;2022-09-13T00:58:47;5.20;;;3.20;;
9409;SDS011;4744;52.576;13.568;2022-09-13T01:01:15;3.25;;;3.05;;
9409;SDS011;4744;52.576;13.568;2022-09-13T01:03:45;3.03;;;2.78;;
9409;SDS011;4744;52.576;13.568;2022-09-13T01:06:14;3.28;;;3.08;;
9409;SDS011;4744;52.576;13.568;2022-09-13T01:08:43;2.83;;;2.63;;
9409;SDS011;4744;52.576;13.568;2022-09-13T01:11:14;2.67;;;2.58;;
9409;SDS011;4744;52.576;13.568;2022-09-13T01:13:45;2.53;;;2.42;;
9409;SDS011;4744;52.576;13.568;2022-09-13T01:16:12;2.72;;;2.53;;
9409;SDS011;4744;52.576;13.568;2022-09-13T01:18:39;2.90;;;2.70;;
9409;SDS011;4744;52.576;13.568;2022-09-13T01:21:18;2.80;;;2.60;;
9409;SDS011;4744;52.576;13.568;2022-09-13T01:24:19;3.45;;;2.83;;
9409;SDS011;4744;52.576;13.568;2022-09-13T01:27:17;3.00;;;2.33;;
9409;SDS011;4744;52.576;13.568;2022-09-13T01:30:04;2.40;;;2.20;;
9409;SDS011;4744;52.576;13.568;2022-09-13T01:32:36;2.50;;;2.40;;
9409;SDS011;4744;52.576;13.568;2022-09-13T01:35:22;2.55;;;2.35;;
9409;SDS011;4744;52.576;13.568;2022-09-13T01:37:59;2.60;;;2.40;;
9409;SDS011;4744;52.576;13.568;2022-09-13T01:40:41;2.80;;;2.60;;
9409;SDS011;4744;52.576;13.568;2022-09-13T01:43:25;2.75;;;2.55;;
9409;SDS011;4744;52.576;13.568;2022-09-13T01:46:04;2.55;;;2.45;;
9409;SDS011;4744;52.576;13.568;2022-09-13T01:48:39;2.92;;;2.72;;
9409;SDS011;4744;52.576;13.568;2022-09-13T01:51:20;3.20;;;3.00;;
9409;SDS011;4744;52.576;13.568;2022-09-13T01:53:55;3.10;;;2.90;;
9409;SDS011;4744;52.576;13.568;2022-09-13T01:56:32;3.17;;;2.97;;
9409;SDS011;4744;52.576;13.568;2022-09-13T01:59:08;2.80;;;2.60;;
9409;SDS011;4744;52.576;13.568;2022-09-13T02:01:42;3.08;;;2.88;;
9409;SDS011;4744;52.576;13.568;2022-09-13T02:04:16;3.10;;;2.90;;
9409;SDS011;4744;52.576;13.568;2022-09-13T02:06:48;3.28;;;2.97;;
9409;SDS011;4744;52.576;13.568;2022-09-13T02:09:19;3.20;;;3.00;;
9409;SDS011;4744;52.576;13.568;2022-09-13T02:11:50;3.10;;;2.90;;
9409;SDS011;4744;52.576;13.568;2022-09-13T02:14:23;3.45;;;3.15;;
9409;SDS011;4744;52.576;13.568;2022-09-13T02:16:55;3.15;;;2.95;;
9409;SDS011;4744;52.576;13.568;2022-09-13T02:19:26;3.10;;;2.90;;
9409;SDS011;4744;52.576;13.568;2022-09-13T02:22:00;3.25;;;3.05;;
9409;SDS011;4744;52.576;13.568;2022-09-13T02:24:32;3.00;;;2.80;;
9409;SDS011;4744;52.576;13.568;2022-09-13T02:27:02;3.00;;;2.80;;
9409;SDS011;4744;52.576;13.568;2022-09-13T02:29:34;3.03;;;2.83;;
9409;SDS011;4744;52.576;13.568;2022-09-13T02:32:05;3.35;;;3.15;;
9409;SDS011;4744;52.576;13.568;2022-09-13T02:34:35;3.50;;;3.20;;
9409;SDS011;4744;52.576;13.568;2022-09-13T02:37:05;3.00;;;2.80;;
9409;SDS011;4744;52.576;13.568;2022-09-13T02:39:34;3.22;;;3.03;;
9409;SDS011;4744;52.576;13.568;2022-09-13T02:42:07;3.00;;;2.88;;
9409;SDS011;4744;52.576;13.568;2022-09-13T02:44:39;3.20;;;3.00;;
9409;SDS011;4744;52.576;13.568;2022-09-13T02:47:13;4.00;;;3.60;;
9409;SDS011;4744;52.576;13.568;2022-09-13T02:49:53;3.38;;;3.17;;
9409;SDS011;4744;52.576;13.568;2022-09-13T02:52:31;3.78;;;3.47;;
9409;SDS011;4744;52.576;13.568;2022-09-13T02:55:06;3.33;;;3.10;;
9409;SDS011;4744;52.576;13.568;2022-09-13T02:57:39;3.17;;;2.97;;
9409;SDS011;4744;52.576;13.568;2022-09-13T03:00:13;3.22;;;2.97;;
9409;SDS011;4744;52.576;13.568;2022-09-13T03:02:41;3.92;;;3.63;;
9409;SDS011;4744;52.576;13.568;2022-09-13T03:05:10;3.90;;;3.60;;
9409;SDS011;4744;52.576;13.568;2022-09-13T03:07:37;3.42;;;3.22;;
9409;SDS011;4744;52.576;13.568;2022-09-13T03:10:04;3.60;;;3.30;;
9409;SDS011;4744;52.576;13.568;2022-09-13T03:12:38;3.85;;;3.40;;
9409;SDS011;4744;52.576;13.568;2022-09-13T03:15:19;3.72;;;3.50;;
9409;SDS011;4744;52.576;13.568;2022-09-13T03:17:59;3.85;;;3.65;;
9409;SDS011;4744;52.576;13.568;2022-09-13T03:20:39;3.95;;;3.65;;
9409;SDS011;4744;52.576;13.568;2022-09-13T03:23:17;3.75;;;3.53;;
9409;SDS011;4744;52.576;13.568;2022-09-13T03:28:50;3.80;;;3.50;;
9409;SDS011;4744;52.576;13.568;2022-09-13T03:31:29;3.65;;;3.45;;
9409;SDS011;4744;52.576;13.568;2022-09-13T03:34:01;3.38;;;3.17;;
9409;SDS011;4744;52.576;13.568;2022-09-13T03:36:36;4.20;;;3.83;;
9409;SDS011;4744;52.576;13.568;2022-09-13T03:39:09;3.70;;;3.50;;
9409;SDS011;4744;52.576;13.568;2022-09-13T03:41:42;3.90;;;3.70;;
9409;SDS011;4744;52.576;13.568;2022-09-13T03:44:15;3.78;;;3.53;;
9409;SDS011;4744;52.576;13.568;2022-09-13T03:46:46;3.35;;;3.05;;
9409;SDS011;4744;52.576;13.568;2022-09-13T03:49:18;4.28;;;3.97;;
9409;SDS011;4744;52.576;13.568;2022-09-13T03:51:48;3.92;;;3.63;;
9409;SDS011;4744;52.576;13.568;2022-09-13T03:54:18;3.53;;;3.33;;
9409;SDS011;4744;52.576;13.568;2022-09-13T03:57:06;4.20;;;3.65;;
9409;SDS011;4744;52.576;13.568;2022-09-13T03:59:34;3.40;;;3.15;;
9409;SDS011;4744;52.576;13.568;2022-09-13T04:02:02;3.80;;;3.50;;
9409;SDS011;4744;52.576;13.568;2022-09-13T04:04:31;3.63;;;3.22;;
9409;SDS011;4744;52.576;13.568;2022-09-13T04:06:58;4.00;;;3.70;;
9409;SDS011;4744;52.576;13.568;2022-09-13T04:09:27;3.72;;;3.53;;
9409;SDS011;4744;52.576;13.568;2022-09-13T04:11:54;4.45;;;4.05;;
9409;SDS011;4744;52.576;13.568;2022-09-13T04:14:21;3.58;;;3.38;;
9409;SDS011;4744;52.576;13.568;2022-09-13T04:16:50;4.40;;;4.00;;
9409;SDS011;4744;52.576;13.568;2022-09-13T04:19:17;4.07;;;3.72;;
9409;SDS011;4744;52.576;13.568;2022-09-13T04:21:53;3.40;;;3.20;;
9409;SDS011;4744;52.576;13.568;2022-09-13T04:24:23;3.53;;;3.33;;
9409;SDS011;4744;52.576;13.568;2022-09-13T04:26:51;3.75;;;3.55;;
9409;SDS011;4744;52.576;13.568;2022-09-13T04:29:18;3.85;;;3.55;;
9409;SDS011;4744;52.576;13.568;2022-09-13T04:31:46;4.70;;;4.30;;
9409;SDS011;4744;52.576;13.568;2022-09-13T04:34:14;4.57;;;4.07;;
9409;SDS011;4744;52.576;13.568;2022-09-13T04:36:41;4.40;;;4.10;;
9409;SDS011;4744;52.576;13.568;2022-09-13T04:39:09;4.30;;;4.00;;
9409;SDS011;4744;52.576;13.568;2022-09-13T04:41:38;5.80;;;5.25;;
9409;SDS011;4744;52.576;13.568;2022-09-13T04:44:05;5.15;;;4.75;;
9409;SDS011;4744;52.576;13.568;2022-09-13T04:46:31;4.93;;;4.55;;
9409;SDS011;4744;52.576;13.568;2022-09-13T04:48:58;5.05;;;4.68;;
9409;SDS011;4744;52.576;13.568;2022-09-13T04:51:25;4.88;;;4.47;;
9409;SDS011;4744;52.576;13.568;2022-09-13T04:53:52;5.10;;;4.45;;
9409;SDS011;4744;52.576;13.568;2022-09-13T04:56:21;5.03;;;4.63;;
9409;SDS011;4744;52.576;13.568;2022-09-13T04:58:49;4.72;;;4.32;;
9409;SDS011;4744;52.576;13.568;2022-09-13T05:01:16;4.53;;;4.22;;
9409;SDS011;4744;52.576;13.568;2022-09-13T05:03:43;4.45;;;4.00;;
9409;SDS011;4744;52.576;13.568;2022-09-13T05:06:11;4.60;;;4.28;;
9409;SDS011;4744;52.576;13.568;2022-09-13T05:08:42;5.10;;;4.70;;
9409;SDS011;4744;52.576;13.568;2022-09-13T05:11:09;4.72;;;4.43;;
9409;SDS011;4744;52.576;13.568;2022-09-13T05:13:37;4.43;;;4.13;;
9409;SDS011;4744;52.576;13.568;2022-09-13T05:16:05;4.95;;;4.45;;
9409;SDS011;4744;52.576;13.568;2022-09-13T05:18:33;4.40;;;4.10;;
9409;SDS011;4744;52.576;13.568;2022-09-13T05:21:03;5.07;;;4.68;;
9409;SDS011;4744;52.576;13.568;2022-09-13T05:23:30;4.72;;;4.40;;
9409;SDS011;4744;52.576;13.568;2022-09-13T05:25:57;4.80;;;4.35;;
9409;SDS011;4744;52.576;13.568;2022-09-13T05:28:26;4.95;;;4.50;;
9409;SDS011;4744;52.576;13.568;2022-09-13T05:30:56;4.90;;;4.50;;
9409;SDS011;4744;52.576;13.568;2022-09-13T05:33:23;5.95;;;4.75;;
9409;SDS011;4744;52.576;13.568;2022-09-13T05:35:50;5.20;;;4.47;;
9409;SDS011;4744;52.576;13.568;2022-09-13T05:38:17;5.88;;;4.32;;
9409;SDS011;4744;52.576;13.568;2022-09-13T05:40:44;4.53;;;4.13;;
9409;SDS011;4744;52.576;13.568;2022-09-13T05:43:11;6.53;;;4.72;;
9409;SDS011;4744;52.576;13.568;2022-09-13T05:45:38;4.45;;;4.05;;
9409;SDS011;4744;52.576;13.568;2022-09-13T05:48:06;4.45;;;4.05;;
9409;SDS011;4744;52.576;13.568;2022-09-13T05:50:35;4.95;;;4.63;;
9409;SDS011;4744;52.576;13.568;2022-09-13T05:53:03;4.25;;;3.92;;
9409;SDS011;4744;52.576;13.568;2022-09-13T05:55:30;3.80;;;3.50;;
9409;SDS011;4744;52.576;13.568;2022-09-13T05:57:57;6.68;;;5.35;;
9409;SDS011;4744;52.576;13.568;2022-09-13T06:00:24;5.63;;;5.00;;
9409;SDS011;4744;52.576;13.568;2022-09-13T06:02:50;5.93;;;5.32;;
9409;SDS011;4744;52.576;13.568;2022-09-13T06:05:19;4.47;;;4.18;;
9409;SDS011;4744;52.576;13.568;2022-09-13T06:07:46;5.05;;;4.20;;
9409;SDS011;4744;52.576;13.568;2022-09-13T06:10:13;5.72;;;5.22;;
9409;SDS011;4744;52.576;13.568;2022-09-13T06:12:40;5.35;;;4.85;;
9409;SDS011;4744;52.576;13.568;2022-09-13T06:15:07;6.20;;;4.88;;
9409;SDS011;4744;52.576;13.568;2022-09-13T06:17:35;4.85;;;4.45;;
9409;SDS011;4744;52.576;13.568;2022-09-13T06:20:02;4.82;;;4.53;;
9409;SDS011;4744;52.576;13.568;2022-09-13T06:22:30;4.53;;;4.13;;
9409;SDS011;4744;52.576;13.568;2022-09-13T06:24:59;4.30;;;4.00;;
9409;SDS011;4744;52.576;13.568;2022-09-13T06:27:27;4.47;;;4.18;;
9409;SDS011;4744;52.576;13.568;2022-09-13T06:29:55;5.72;;;5.30;;
9409;SDS011;4744;52.576;13.568;2022-09-13T06:32:21;5.43;;;5.03;;
9409;SDS011;4744;52.576;13.568;2022-09-13T06:34:48;5.40;;;5.00;;
9409;SDS011;4744;52.576;13.568;2022-09-13T06:37:15;5.05;;;4.65;;
9409;SDS011;4744;52.576;13.568;2022-09-13T06:39:43;5.20;;;4.63;;
9409;SDS011;4744;52.576;13.568;2022-09-13T06:42:10;4.82;;;4.50;;
9409;SDS011;4744;52.576;13.568;2022-09-13T06:44:36;5.45;;;4.97;;
9409;SDS011;4744;52.576;13.568;2022-09-13T06:47:03;5.38;;;4.90;;
9409;SDS011;4744;52.576;13.568;2022-09-13T06:49:30;4.70;;;4.30;;
9409;SDS011;4744;52.576;13.568;2022-09-13T06:51:57;6.60;;;6.03;;
9409;SDS011;4744;52.576;13.568;2022-09-13T06:54:24;6.10;;;5.50;;
9409;SDS011;4744;52.576;13.568;2022-09-13T06:56:52;5.85;;;5.35;;
9409;SDS011;4744;52.576;13.568;2022-09-13T06:59:19;7.65;;;6.38;;
9409;SDS011;4744;52.576;13.568;2022-09-13T07:01:46;7.55;;;6.95;;
9409;SDS011;4744;52.576;13.568;2022-09-13T07:04:14;8.25;;;7.45;;
9409;SDS011;4744;52.576;13.568;2022-09-13T07:06:44;8.95;;;8.05;;
9409;SDS011;4744;52.576;13.568;2022-09-13T07:09:13;9.38;;;8.23;;
9409;SDS011;4744;52.576;13.568;2022-09-13T07:11:42;9.70;;;8.80;;
9409;SDS011;4744;52.576;13.568;2022-09-13T07:14:13;9.70;;;8.80;;
9409;SDS011;4744;52.576;13.568;2022-09-13T07:16:41;9.98;;;8.98;;
9409;SDS011;4744;52.576;13.568;2022-09-13T07:19:11;10.00;;;9.10;;
9409;SDS011;4744;52.576;13.568;2022-09-13T07:21:40;10.23;;;9.23;;
9409;SDS011;4744;52.576;13.568;2022-09-13T07:24:07;10.45;;;9.43;;
9409;SDS011;4744;52.576;13.568;2022-09-13T07:26:34;9.95;;;8.95;;
9409;SDS011;4744;52.576;13.568;2022-09-13T07:29:03;10.68;;;9.77;;
9409;SDS011;4744;52.576;13.568;2022-09-13T07:31:33;8.27;;;7.57;;
9409;SDS011;4744;52.576;13.568;2022-09-13T07:34:01;9.65;;;8.80;;
9409;SDS011;4744;52.576;13.568;2022-09-13T07:36:30;9.90;;;9.00;;
9409;SDS011;4744;52.576;13.568;2022-09-13T07:38:58;9.27;;;8.48;;
9409;SDS011;4744;52.576;13.568;2022-09-13T07:41:25;10.32;;;9.32;;
9409;SDS011;4744;52.576;13.568;2022-09-13T07:43:53;10.13;;;9.10;;
9409;SDS011;4744;52.576;13.568;2022-09-13T07:46:22;10.57;;;9.45;;
9409;SDS011;4744;52.576;13.568;2022-09-13T07:48:54;10.63;;;9.73;;
9409;SDS011;4744;52.576;13.568;2022-09-13T07:51:22;10.40;;;9.32;;
9409;SDS011;4744;52.576;13.568;2022-09-13T07:53:51;9.85;;;8.85;;
9409;SDS011;4744;52.576;13.568;2022-09-13T07:56:21;10.15;;;9.25;;
9409;SDS011;4744;52.576;13.568;2022-09-13T07:58:49;9.88;;;8.95;;
9409;SDS011;4744;52.576;13.568;2022-09-13T08:01:17;9.90;;;8.90;;
9409;SDS011;4744;52.576;13.568;2022-09-13T08:03:49;9.82;;;9.02;;
9409;SDS011;4744;52.576;13.568;2022-09-13T08:06:18;10.52;;;9.52;;
9409;SDS011;4744;52.576;13.568;2022-09-13T08:08:45;11.25;;;10.10;;
9409;SDS011;4744;52.576;13.568;2022-09-13T08:11:13;9.63;;;8.75;;
9409;SDS011;4744;52.576;13.568;2022-09-13T08:13:42;10.90;;;10.00;;
9409;SDS011;4744;52.576;13.568;2022-09-13T08:16:09;9.50;;;8.75;;
9409;SDS011;4744;52.576;13.568;2022-09-13T08:18:36;9.73;;;8.93;;
9409;SDS011;4744;52.576;13.568;2022-09-13T08:21:02;10.93;;;9.93;;
9409;SDS011;4744;52.576;13.568;2022-09-13T08:23:31;10.00;;;8.93;;
9409;SDS011;4744;52.576;13.568;2022-09-13T08:26:01;9.15;;;8.25;;
9409;SDS011;4744;52.576;13.568;2022-09-13T08:28:30;11.00;;;9.98;;
9409;SDS011;4744;52.576;13.568;2022-09-13T08:31:02;10.60;;;9.57;;
9409;SDS011;4744;52.576;13.568;2022-09-13T08:33:29;9.95;;;9.05;;
9409;SDS011;4744;52.576;13.568;2022-09-13T08:35:57;8.48;;;7.78;;
9409;SDS011;4744;52.576;13.568;2022-09-13T08:38:24;10.40;;;9.40;;
9409;SDS011;4744;52.576;13.568;2022-09-13T08:40:53;10.60;;;9.65;;
9409;SDS011;4744;52.576;13.568;2022-09-13T08:43:24;9.75;;;8.95;;
9409;SDS011;4744;52.576;13.568;2022-09-13T08:46:04;9.93;;;9.02;;
9409;SDS011;4744;52.576;13.568;2022-09-13T08:48:34;10.20;;;9.30;;
9409;SDS011;4744;52.576;13.568;2022-09-13T08:51:05;10.95;;;9.80;;
9409;SDS011;4744;52.576;13.568;2022-09-13T08:53:38;9.38;;;8.57;;
9409;SDS011;4744;52.576;13.568;2022-09-13T08:56:11;9.45;;;8.55;;
9409;SDS011;4744;52.576;13.568;2022-09-13T08:58:45;10.65;;;9.68;;
9409;SDS011;4744;52.576;13.568;2022-09-13T09:01:24;9.20;;;8.30;;
9409;SDS011;4744;52.576;13.568;2022-09-13T09:04:05;9.80;;;8.65;;
9409;SDS011;4744;52.576;13.568;2022-09-13T09:06:40;8.95;;;8.25;;
9409;SDS011;4744;52.576;13.568;2022-09-13T09:09:09;10.60;;;9.50;;
9409;SDS011;4744;52.576;13.568;2022-09-13T09:11:43;9.00;;;8.02;;
9409;SDS011;4744;52.576;13.568;2022-09-13T09:14:18;9.60;;;8.70;;
9409;SDS011;4744;52.576;13.568;2022-09-13T09:16:50;8.68;;;7.88;;
9409;SDS011;4744;52.576;13.568;2022-09-13T09:19:20;9.13;;;8.10;;
9409;SDS011;4744;52.576;13.568;2022-09-13T09:21:49;9.73;;;8.55;;
9409;SDS011;4744;52.576;13.568;2022-09-13T09:24:18;8.73;;;7.95;;
9409;SDS011;4744;52.576;13.568;2022-09-13T09:26:48;7.47;;;6.85;;
9409;SDS011;4744;52.576;13.568;2022-09-13T09:29:16;10.52;;;9.35;;
9409;SDS011;4744;52.576;13.568;2022-09-13T09:31:47;8.85;;;7.03;;
9409;SDS011;4744;52.576;13.568;2022-09-13T09:34:26;9.68;;;7.63;;
9409;SDS011;4744;52.576;13.568;2022-09-13T09:37:07;8.60;;;7.80;;
9409;SDS011;4744;52.576;13.568;2022-09-13T09:39:40;8.80;;;8.00;;
9409;SDS011;4744;52.576;13.568;2022-09-13T09:42:11;7.03;;;6.53;;
9409;SDS011;4744;52.576;13.568;2022-09-13T09:44:42;7.10;;;6.47;;
9409;SDS011;4744;52.576;13.568;2022-09-13T09:47:13;8.23;;;7.28;;
9409;SDS011;4744;52.576;13.568;2022-09-13T09:49:43;7.97;;;7.13;;
9409;SDS011;4744;52.576;13.568;2022-09-13T09:52:30;7.93;;;7.20;;
9409;SDS011;4744;52.576;13.568;2022-09-13T09:55:08;6.45;;;5.82;;
9409;SDS011;4744;52.576;13.568;2022-09-13T09:57:51;7.57;;;6.80;;
9409;SDS011;4744;52.576;13.568;2022-09-13T10:00:20;7.28;;;6.65;;
9409;SDS011;4744;52.576;13.568;2022-09-13T10:02:50;6.90;;;6.30;;
9409;SDS011;4744;52.576;13.568;2022-09-13T10:05:21;7.13;;;6.43;;
9409;SDS011;4744;52.576;13.568;2022-09-13T10:07:54;6.72;;;6.03;;
9409;SDS011;4744;52.576;13.568;2022-09-13T10:10:24;6.72;;;6.00;;
9409;SDS011;4744;52.576;13.568;2022-09-13T10:12:58;7.75;;;6.85;;
9409;SDS011;4744;52.576;13.568;2022-09-13T10:15:26;6.78;;;6.15;;
9409;SDS011;4744;52.576;13.568;2022-09-13T10:18:03;6.55;;;5.97;;
9409;SDS011;4744;52.576;13.568;2022-09-13T10:20:32;6.40;;;5.85;;
9409;SDS011;4744;52.576;13.568;2022-09-13T10:23:10;7.60;;;6.90;;
9409;SDS011;4744;52.576;13.568;2022-09-13T10:25:54;6.35;;;5.75;;
9409;SDS011;4744;52.576;13.568;2022-09-13T10:28:25;7.93;;;7.25;;
9409;SDS011;4744;52.576;13.568;2022-09-13T10:30:53;7.75;;;7.05;;
9409;SDS011;4744;52.576;13.568;2022-09-13T10:33:26;7.28;;;6.25;;
9409;SDS011;4744;52.576;13.568;2022-09-13T10:35:55;5.47;;;4.97;;
9409;SDS011;4744;52.576;13.568;2022-09-13T10:38:28;5.40;;;4.95;;
9409;SDS011;4744;52.576;13.568;2022-09-13T10:40:58;6.93;;;6.00;;
9409;SDS011;4744;52.576;13.568;2022-09-13T10:43:28;6.20;;;5.60;;
9409;SDS011;4744;52.576;13.568;2022-09-13T10:45:57;5.72;;;5.32;;
9409;SDS011;4744;52.576;13.568;2022-09-13T10:48:27;6.60;;;5.65;;
9409;SDS011;4744;52.576;13.568;2022-09-13T10:50:59;6.05;;;5.20;;
9409;SDS011;4744;52.576;13.568;2022-09-13T10:53:30;5.90;;;5.38;;
9409;SDS011;4744;52.576;13.568;2022-09-13T10:56:00;4.50;;;4.10;;
9409;SDS011;4744;52.576;13.568;2022-09-13T10:58:28;5.60;;;5.13;;
9409;SDS011;4744;52.576;13.568;2022-09-13T11:01:04;6.60;;;5.65;;
9409;SDS011;4744;52.576;13.568;2022-09-13T11:03:56;5.63;;;5.13;;
9409;SDS011;4744;52.576;13.568;2022-09-13T11:06:58;5.05;;;4.65;;
9409;SDS011;4744;52.576;13.568;2022-09-13T11:09:40;4.80;;;4.40;;
9409;SDS011;4744;52.576;13.568;2022-09-13T11:12:14;5.07;;;4.65;;
9409;SDS011;4744;52.576;13.568;2022-09-13T11:14:52;5.38;;;4.97;;
9409;SDS011;4744;52.576;13.568;2022-09-13T11:17:33;6.20;;;5.65;;
9409;SDS011;4744;52.576;13.568;2022-09-13T11:20:20;5.45;;;5.05;;
9409;SDS011;4744;52.576;13.568;2022-09-13T11:23:13;4.13;;;3.83;;
9409;SDS011;4744;52.576;13.568;2022-09-13T11:25:56;5.53;;;5.03;;
9409;SDS011;4744;52.576;13.568;2022-09-13T11:28:34;4.28;;;3.88;;
9409;SDS011;4744;52.576;13.568;2022-09-13T11:31:16;4.07;;;3.78;;
9409;SDS011;4744;52.576;13.568;2022-09-13T11:33:58;5.10;;;4.70;;
9409;SDS011;4744;52.576;13.568;2022-09-13T11:36:41;7.75;;;5.53;;
9409;SDS011;4744;52.576;13.568;2022-09-13T11:39:21;5.13;;;4.72;;
9409;SDS011;4744;52.576;13.568;2022-09-13T11:41:58;6.90;;;6.20;;
9409;SDS011;4744;52.576;13.568;2022-09-13T11:44:46;7.30;;;6.60;;
9409;SDS011;4744;52.576;13.568;2022-09-13T11:47:28;7.18;;;6.57;;
9409;SDS011;4744;52.576;13.568;2022-09-13T11:50:22;8.00;;;6.07;;
9409;SDS011;4744;52.576;13.568;2022-09-13T11:52:58;8.02;;;6.72;;
9409;SDS011;4744;52.576;13.568;2022-09-13T11:55:47;6.20;;;5.70;;
9409;SDS011;4744;52.576;13.568;2022-09-13T11:58:17;5.82;;;5.32;;
9409;SDS011;4744;52.576;13.568;2022-09-13T12:00:50;6.07;;;5.47;;
9409;SDS011;4744;52.576;13.568;2022-09-13T12:03:24;7.28;;;6.57;;
9409;SDS011;4744;52.576;13.568;2022-09-13T12:05:57;6.13;;;5.63;;
9409;SDS011;4744;52.576;13.568;2022-09-13T12:08:28;7.82;;;7.03;;
9409;SDS011;4744;52.576;13.568;2022-09-13T12:10:58;6.68;;;6.00;;
9409;SDS011;4744;52.576;13.568;2022-09-13T12:13:29;7.25;;;6.55;;
9409;SDS011;4744;52.576;13.568;2022-09-13T12:16:01;8.95;;;6.40;;
9409;SDS011;4744;52.576;13.568;2022-09-13T12:18:33;7.65;;;6.22;;
9409;SDS011;4744;52.576;13.568;2022-09-13T12:21:06;7.05;;;6.45;;
9409;SDS011;4744;52.576;13.568;2022-09-13T12:23:36;6.63;;;6.00;;
9409;SDS011;4744;52.576;13.568;2022-09-13T12:26:07;6.22;;;5.72;;
9409;SDS011;4744;52.576;13.568;2022-09-13T12:28:39;6.55;;;5.97;;
9409;SDS011;4744;52.576;13.568;2022-09-13T12:31:10;6.95;;;6.25;;
9409;SDS011;4744;52.576;13.568;2022-09-13T12:33:41;8.02;;;7.20;;
9409;SDS011;4744;52.576;13.568;2022-09-13T12:36:14;8.40;;;7.53;;
9409;SDS011;4744;52.576;13.568;2022-09-13T12:39:08;9.50;;;8.60;;
9409;SDS011;4744;52.576;13.568;2022-09-13T12:41:54;6.45;;;5.95;;
9409;SDS011;4744;52.576;13.568;2022-09-13T12:50:40;8.73;;;7.57;;
9409;SDS011;4744;52.576;13.568;2022-09-13T12:53:28;7.10;;;6.40;;
9409;SDS011;4744;52.576;13.568;2022-09-13T12:56:20;6.10;;;5.60;;
9409;SDS011;4744;52.576;13.568;2022-09-13T12:59:03;7.10;;;6.43;;
9409;SDS011;4744;52.576;13.568;2022-09-13T13:02:20;6.90;;;6.30;;
9409;SDS011;4744;52.576;13.568;2022-09-13T13:04:51;6.07;;;5.57;;
9409;SDS011;4744;52.576;13.568;2022-09-13T13:07:22;6.78;;;6.28;;
9409;SDS011;4744;52.576;13.568;2022-09-13T13:09:50;5.57;;;5.18;;
9409;SDS011;4744;52.576;13.568;2022-09-13T13:12:27;6.07;;;5.57;;
9409;SDS011;4744;52.576;13.568;2022-09-13T13:14:56;5.70;;;5.20;;
9409;SDS011;4744;52.576;13.568;2022-09-13T13:17:34;6.32;;;5.30;;
9409;SDS011;4744;52.576;13.568;2022-09-13T13:23:16;6.10;;;5.55;;
9409;SDS011;4744;52.576;13.568;2022-09-13T13:34:36;5.32;;;4.93;;
9409;SDS011;4744;52.576;13.568;2022-09-13T13:37:20;5.20;;;4.80;;
9409;SDS011;4744;52.576;13.568;2022-09-13T13:40:17;6.30;;;4.80;;
9409;SDS011;4744;52.576;13.568;2022-09-13T13:42:49;4.95;;;4.55;;
9409;SDS011;4744;52.576;13.568;2022-09-13T13:45:19;4.57;;;4.20;;
9409;SDS011;4744;52.576;13.568;2022-09-13T13:53:42;4.32;;;3.92;;
9409;SDS011;4744;52.576;13.568;2022-09-13T13:56:18;3.90;;;3.60;;
9409;SDS011;4744;52.576;13.568;2022-09-13T13:58:49;3.42;;;3.13;;
9409;SDS011;4744;52.576;13.568;2022-09-13T14:01:21;4.10;;;3.58;;
9409;SDS011;4744;52.576;13.568;2022-09-13T14:03:55;4.35;;;3.45;;
9409;SDS011;4744;52.576;13.568;2022-09-13T14:06:35;3.28;;;3.08;;
9409;SDS011;4744;52.576;13.568;2022-09-13T14:09:13;3.13;;;2.83;;
9409;SDS011;4744;52.576;13.568;2022-09-13T14:11:57;3.25;;;3.05;;
9409;SDS011;4744;52.576;13.568;2022-09-13T14:14:42;2.80;;;2.60;;
9409;SDS011;4744;52.576;13.568;2022-09-13T14:17:31;2.97;;;2.70;;
9409;SDS011;4744;52.576;13.568;2022-09-13T14:20:16;4.22;;;2.85;;
9409;SDS011;4744;52.576;13.568;2022-09-13T14:22:45;2.90;;;2.70;;
9409;SDS011;4744;52.576;13.568;2022-09-13T14:25:13;3.13;;;2.83;;
9409;SDS011;4744;52.576;13.568;2022-09-13T14:27:48;3.42;;;3.13;;
9409;SDS011;4744;52.576;13.568;2022-09-13T14:30:19;2.90;;;2.70;;
9409;SDS011;4744;52.576;13.568;2022-09-13T14:32:47;3.08;;;2.75;;
9409;SDS011;4744;52.576;13.568;2022-09-13T14:35:23;2.80;;;2.60;;
9409;SDS011;4744;52.576;13.568;2022-09-13T14:37:53;3.17;;;2.88;;
9409;SDS011;4744;52.576;13.568;2022-09-13T14:40:22;3.10;;;2.90;;
9409;SDS011;4744;52.576;13.568;2022-09-13T14:42:53;2.67;;;2.58;;
9409;SDS011;4744;52.576;13.568;2022-09-13T14:45:22;3.42;;;3.10;;
9409;SDS011;4744;52.576;13.568;2022-09-13T14:47:53;3.10;;;2.65;;
9409;SDS011;4744;52.576;13.568;2022-09-13T14:50:24;2.45;;;2.25;;
9409;SDS011;4744;52.576;13.568;2022-09-13T14:52:55;2.08;;;1.98;;
9409;SDS011;4744;52.576;13.568;2022-09-13T14:55:24;2.17;;;2.08;;
9409;SDS011;4744;52.576;13.568;2022-09-13T14:57:55;2.35;;;2.20;;
9409;SDS011;4744;52.576;13.568;2022-09-13T15:00:27;2.72;;;2.10;;
9409;SDS011;4744;52.576;13.568;2022-09-13T15:02:56;2.13;;;2.03;;
9409;SDS011;4744;52.576;13.568;2022-09-13T15:05:26;3.83;;;2.17;;
9409;SDS011;4744;52.576;13.568;2022-09-13T15:07:58;3.03;;;2.22;;
9409;SDS011;4744;52.576;13.568;2022-09-13T15:10:26;2.03;;;1.92;;
9409;SDS011;4744;52.576;13.568;2022-09-13T15:13:06;1.95;;;1.85;;
9409;SDS011;4744;52.576;13.568;2022-09-13T15:15:35;2.13;;;1.80;;
9409;SDS011;4744;52.576;13.568;2022-09-13T15:18:04;2.50;;;1.70;;
9409;SDS011;4744;52.576;13.568;2022-09-13T15:20:48;1.98;;;1.70;;
9409;SDS011;4744;52.576;13.568;2022-09-13T15:23:17;2.22;;;1.90;;
9409;SDS011;4744;52.576;13.568;2022-09-13T15:25:51;2.03;;;1.83;;
9409;SDS011;4744;52.576;13.568;2022-09-13T15:28:22;1.80;;;1.70;;
9409;SDS011;4744;52.576;13.568;2022-09-13T15:30:51;1.90;;;1.80;;
9409;SDS011;4744;52.576;13.568;2022-09-13T15:33:21;2.17;;;2.00;;
9409;SDS011;4744;52.576;13.568;2022-09-13T15:35:51;2.20;;;2.00;;
9409;SDS011;4744;52.576;13.568;2022-09-13T15:38:22;2.40;;;2.20;;
9409;SDS011;4744;52.576;13.568;2022-09-13T15:41:00;2.00;;;1.90;;
9409;SDS011;4744;52.576;13.568;2022-09-13T15:43:29;2.33;;;2.22;;
9409;SDS011;4744;52.576;13.568;2022-09-13T15:45:57;2.35;;;2.17;;
9409;SDS011;4744;52.576;13.568;2022-09-13T15:48:26;2.55;;;2.35;;
9409;SDS011;4744;52.576;13.568;2022-09-13T15:51:03;2.40;;;2.20;;
9409;SDS011;4744;52.576;13.568;2022-09-13T15:53:32;3.70;;;2.80;;
9409;SDS011;4744;52.576;13.568;2022-09-13T15:56:00;2.53;;;2.42;;
9409;SDS011;4744;52.576;13.568;2022-09-13T15:58:27;2.75;;;2.60;;